Terminal Aerodrome Forecast
Issued by NWS Jackson, KY

Home | Current Version | Previous Version | Text Only | Print | Product List | Glossary On
Versions: 1 2 3 4 5 6 7 8 9 10 11 12 13 14
000
FTUS43 KJKL 301120
TAFJKL
TAF
KJKL 301120Z 3012/3112 00000KT P6SM SCT250
     FM301800 VRB06KT 5SM -SHRA VCTS BKN050CB OVC120
     FM310000 VRB06KT P6SM VCTS BKN040CB BKN120
     FM310900 VRB03KT 4SM BR SCT100=

USA.gov is the U.S. government's official web portal to all federal, state and local government web resources and services.